Gassetts, Vermont
Current Conditions -  °F | °C
As of 11:54 AM on Thursday 30 Oct 2014 (Local Time) from KVSF Reporting Station
Broken Clouds Broken Clouds  
Wind Chill: 52°   Ceiling: 7000
Heat Index: 52°   Visibility: 10mi
Dew Point: 35°   Wind: 9mph
Humidity: 53%   Direction: 310°NW
Pressure: 29.94"   Gusts: NA
Location:  43.3606°N, 72.5739°W
Report Text: KVSF 301554Z AUTO 31008KT 10SM SCT049 BKN070 11/02 A2994 RMK AO2 SLP143 T01110017
Loading
Personal Weather Stations






























Interactive Weather Map
Tropical Storm Tracking
New forecast layout! Learn more

10-Day Weather Forecast

Advertisements
Track Severe Weather on mobile